Time,TemperatureF,DewpointF,PressureIn,WindDirection,WindDirectionDegrees,WindSpeedMPH,WindSpeedGustMPH,Humidity,HourlyPrecipIn,Conditions,Clouds,dailyrainin,SoftwareType,DateUTC
2013-10-03 00:01:00,51.8,50.7,29.83,WNW,284,0.0,0.0,96,0.00,,,0.00,Wunderground v.1.15,2013-10-03 04:01:00,
2013-10-03 00:07:00,51.5,50.4,29.83,WNW,284,0.0,0.0,96,0.00,,,0.00,Wunderground v.1.15,2013-10-03 04:07:00,
2013-10-03 00:12:00,51.4,50.3,29.83,WNW,284,0.0,0.0,96,0.00,,,0.00,Wunderground v.1.15,2013-10-03 04:12:00,
2013-10-03 00:16:00,51.2,50.1,29.83,WNW,284,0.0,0.0,96,0.00,,,0.00,Wunderground v.1.15,2013-10-03 04:16:00,
2013-10-03 00:22:00,51.2,50.4,29.83,WNW,284,0.0,0.0,97,0.00,,,0.00,Wunderground v.1.15,2013-10-03 04:22:00,
2013-10-03 00:27:00,51.2,50.4,29.83,WNW,284,0.0,0.0,97,0.00,,,0.00,Wunderground v.1.15,2013-10-03 04:27:00,
2013-10-03 00:32:00,51.0,50.2,29.83,WNW,284,0.0,0.0,97,0.00,,,0.00,Wunderground v.1.15,2013-10-03 04:32:00,
2013-10-03 00:42:00,50.7,49.9,29.83,WNW,284,0.0,0.0,97,0.00,,,0.00,Wunderground v.1.15,2013-10-03 04:42:00,
2013-10-03 00:46:00,50.5,49.4,29.83,WNW,284,0.0,0.0,96,0.00,,,0.00,Wunderground v.1.15,2013-10-03 04:46:00,
2013-10-03 00:52:00,50.3,49.2,29.83,WNW,284,0.0,0.0,96,0.00,,,0.00,Wunderground v.1.15,2013-10-03 04:52:00,
2013-10-03 00:57:00,50.2,49.4,29.83,WNW,284,0.0,0.0,97,0.00,,,0.00,Wunderground v.1.15,2013-10-03 04:57:00,
2013-10-03 01:07:00,50.0,49.2,29.83,WNW,284,0.0,0.0,97,0.00,,,0.00,Wunderground v.1.15,2013-10-03 05:07:00,
2013-10-03 01:17:00,49.6,48.8,29.83,WNW,284,0.0,0.0,97,0.00,,,0.00,Wunderground v.1.15,2013-10-03 05:17:00,
2013-10-03 01:27:00,49.1,48.0,29.83,WNW,284,0.0,0.0,96,0.00,,,0.00,Wunderground v.1.15,2013-10-03 05:27:00,
2013-10-03 01:32:00,48.8,47.7,29.83,WNW,284,0.0,0.0,96,0.00,,,0.00,Wunderground v.1.15,2013-10-03 05:32:00,
2013-10-03 01:42:00,48.8,48.0,29.84,WNW,284,0.0,0.0,97,0.00,,,0.00,Wunderground v.1.15,2013-10-03 05:42:00,
2013-10-03 01:51:00,48.7,47.9,29.83,WNW,284,0.0,0.0,97,0.00,,,0.00,Wunderground v.1.15,2013-10-03 05:51:00,
2013-10-03 01:57:00,48.5,47.7,29.83,WNW,284,0.0,0.0,97,0.00,,,0.00,Wunderground v.1.15,2013-10-03 05:57:00,
2013-10-03 02:02:00,48.2,47.4,29.83,WNW,284,0.0,0.0,97,0.00,,,0.00,Wunderground v.1.15,2013-10-03 06:02:00,
2013-10-03 02:07:00,48.0,47.2,29.83,WNW,284,0.0,0.0,97,0.00,,,0.00,Wunderground v.1.15,2013-10-03 06:07:00,
2013-10-03 02:17:00,47.9,47.1,29.83,WNW,284,0.0,0.0,97,0.00,,,0.00,Wunderground v.1.15,2013-10-03 06:17:00,
2013-10-03 02:22:00,47.8,47.0,29.84,WNW,284,0.0,1.0,97,0.00,,,0.00,Wunderground v.1.15,2013-10-03 06:22:00,
2013-10-03 02:32:00,47.7,46.9,29.83,WNW,284,0.0,0.0,97,0.00,,,0.00,Wunderground v.1.15,2013-10-03 06:32:00,
2013-10-03 02:41:00,47.2,46.4,29.83,WNW,284,0.0,0.0,97,0.00,,,0.00,Wunderground v.1.15,2013-10-03 06:41:00,
2013-10-03 02:47:00,47.2,46.4,29.83,WNW,284,0.0,0.0,97,0.00,,,0.00,Wunderground v.1.15,2013-10-03 06:47:00,
2013-10-03 02:52:00,47.0,46.2,29.83,WNW,284,0.0,0.0,97,0.00,,,0.00,Wunderground v.1.15,2013-10-03 06:52:00,
2013-10-03 03:02:00,47.2,46.4,29.83,WNW,284,0.0,0.0,97,0.00,,,0.00,Wunderground v.1.15,2013-10-03 07:02:00,
2013-10-03 03:07:00,47.1,46.3,29.83,WNW,284,0.0,0.0,97,0.00,,,0.00,Wunderground v.1.15,2013-10-03 07:07:00,
2013-10-03 03:17:00,47.0,46.2,29.83,WNW,284,0.0,0.0,97,0.00,,,0.00,Wunderground v.1.15,2013-10-03 07:17:00,
2013-10-03 03:22:00,47.0,46.2,29.83,WNW,284,0.0,0.0,97,0.00,,,0.00,Wunderground v.1.15,2013-10-03 07:22:00,
2013-10-03 03:32:00,46.8,46.0,29.83,WNW,284,0.0,0.0,97,0.00,,,0.00,Wunderground v.1.15,2013-10-03 07:32:00,
2013-10-03 03:37:00,46.6,45.8,29.83,WNW,284,0.0,0.0,97,0.00,,,0.00,Wunderground v.1.15,2013-10-03 07:37:00,
2013-10-03 03:47:00,46.4,45.6,29.83,WNW,284,0.0,0.0,97,0.00,,,0.00,Wunderground v.1.15,2013-10-03 07:47:00,
2013-10-03 03:52:00,46.3,45.5,29.83,WNW,284,0.0,0.0,97,0.00,,,0.00,Wunderground v.1.15,2013-10-03 07:52:00,
2013-10-03 04:02:00,46.1,45.3,29.83,WNW,284,0.0,0.0,97,0.00,,,0.01,Wunderground v.1.15,2013-10-03 08:02:00,
2013-10-03 04:07:00,46.1,45.3,29.83,WNW,284,0.0,0.0,97,0.00,,,0.01,Wunderground v.1.15,2013-10-03 08:07:00,
2013-10-03 04:17:00,45.9,45.1,29.83,WNW,284,0.0,0.0,97,0.00,,,0.01,Wunderground v.1.15,2013-10-03 08:17:00,
2013-10-03 04:22:00,45.8,45.0,29.83,WNW,284,0.0,0.0,97,0.00,,,0.01,Wunderground v.1.15,2013-10-03 08:22:00,
2013-10-03 04:31:00,45.5,44.7,29.83,WNW,284,0.0,0.0,97,0.00,,,0.01,Wunderground v.1.15,2013-10-03 08:31:00,
2013-10-03 04:37:00,45.4,44.6,29.83,WNW,284,0.0,0.0,97,0.00,,,0.01,Wunderground v.1.15,2013-10-03 08:37:00,
2013-10-03 04:42:00,45.3,44.5,29.84,WNW,284,0.0,0.0,97,0.00,,,0.01,Wunderground v.1.15,2013-10-03 08:42:00,
2013-10-03 04:52:00,45.0,44.2,29.84,WNW,284,0.0,0.0,97,0.00,,,0.01,Wunderground v.1.15,2013-10-03 08:52:00,
2013-10-03 05:01:00,44.8,44.0,29.84,WNW,284,0.0,0.0,97,0.00,,,0.01,Wunderground v.1.15,2013-10-03 09:01:00,
2013-10-03 05:07:00,45.0,44.5,29.84,WNW,284,0.0,0.0,98,0.00,,,0.01,Wunderground v.1.15,2013-10-03 09:07:00,
2013-10-03 05:16:00,45.2,44.7,29.84,WNW,284,0.0,0.0,98,0.00,,,0.01,Wunderground v.1.15,2013-10-03 09:16:00,
2013-10-03 05:21:00,45.2,44.7,29.84,WNW,284,0.0,0.0,98,0.00,,,0.01,Wunderground v.1.15,2013-10-03 09:21:00,
2013-10-03 05:27:00,45.1,44.6,29.84,WNW,284,0.0,0.0,98,0.00,,,0.01,Wunderground v.1.15,2013-10-03 09:27:00,
2013-10-03 05:37:00,45.1,44.6,29.84,WNW,284,0.0,0.0,98,0.00,,,0.01,Wunderground v.1.15,2013-10-03 09:37:00,
2013-10-03 05:42:00,44.9,44.4,29.84,WNW,284,0.0,0.0,98,0.00,,,0.01,Wunderground v.1.15,2013-10-03 09:42:00,
2013-10-03 05:51:00,44.8,44.3,29.84,WNW,284,0.0,0.0,98,0.00,,,0.01,Wunderground v.1.15,2013-10-03 09:51:00,
2013-10-03 05:57:00,44.7,44.2,29.84,WNW,284,0.0,0.0,98,0.00,,,0.01,Wunderground v.1.15,2013-10-03 09:57:00,
2013-10-03 06:07:00,44.7,44.2,29.84,WNW,284,0.0,0.0,98,0.00,,,0.01,Wunderground v.1.15,2013-10-03 10:07:00,
2013-10-03 06:17:00,44.6,44.1,29.84,WNW,284,0.0,0.0,98,0.00,,,0.01,Wunderground v.1.15,2013-10-03 10:17:00,
2013-10-03 06:27:00,44.5,44.0,29.85,WNW,284,0.0,0.0,98,0.00,,,0.01,Wunderground v.1.15,2013-10-03 10:27:00,
2013-10-03 06:32:00,44.4,43.9,29.85,WNW,284,0.0,0.0,98,0.00,,,0.01,Wunderground v.1.15,2013-10-03 10:32:00,
2013-10-03 06:42:00,44.4,43.9,29.85,WNW,284,0.0,0.0,98,0.00,,,0.01,Wunderground v.1.15,2013-10-03 10:42:00,
2013-10-03 06:51:00,44.5,44.0,29.85,WNW,284,0.0,0.0,98,0.00,,,0.01,Wunderground v.1.15,2013-10-03 10:51:00,
2013-10-03 06:57:00,44.4,43.9,29.85,WNW,284,0.0,0.0,98,0.00,,,0.01,Wunderground v.1.15,2013-10-03 10:57:00,
2013-10-03 07:02:00,44.2,43.7,29.85,WNW,284,0.0,0.0,98,0.00,,,0.01,Wunderground v.1.15,2013-10-03 11:02:00,
2013-10-03 07:07:00,44.0,43.5,29.85,WNW,284,0.0,0.0,98,0.00,,,0.01,Wunderground v.1.15,2013-10-03 11:07:00,
2013-10-03 07:17:00,44.2,43.7,29.86,WNW,284,0.0,0.0,98,0.00,,,0.01,Wunderground v.1.15,2013-10-03 11:17:00,
2013-10-03 07:22:00,44.2,43.7,29.86,WNW,284,0.0,0.0,98,0.00,,,0.01,Wunderground v.1.15,2013-10-03 11:22:00,
2013-10-03 07:32:00,44.1,43.6,29.86,WNW,284,0.0,0.0,98,0.00,,,0.01,Wunderground v.1.15,2013-10-03 11:32:00,
2013-10-03 07:41:00,44.1,43.6,29.86,WNW,284,0.0,0.0,98,0.00,,,0.01,Wunderground v.1.15,2013-10-03 11:41:00,
2013-10-03 07:47:00,44.2,43.7,29.86,WNW,284,0.0,0.0,98,0.00,,,0.01,Wunderground v.1.15,2013-10-03 11:47:00,
2013-10-03 07:56:00,44.5,44.0,29.86,WNW,284,0.0,0.0,98,0.00,,,0.01,Wunderground v.1.15,2013-10-03 11:56:00,
2013-10-03 08:02:00,45.0,44.5,29.86,WNW,284,0.0,0.0,98,0.00,,,0.01,Wunderground v.1.15,2013-10-03 12:02:00,
2013-10-03 08:07:00,46.1,45.6,29.87,WNW,284,0.0,0.0,98,0.00,,,0.01,Wunderground v.1.15,2013-10-03 12:07:00,
2013-10-03 08:17:00,48.1,47.8,29.87,WNW,284,0.0,0.0,99,0.00,,,0.01,Wunderground v.1.15,2013-10-03 12:17:00,
2013-10-03 08:22:00,49.1,48.8,29.87,WNW,284,0.0,0.0,99,0.00,,,0.01,Wunderground v.1.15,2013-10-03 12:22:00,
2013-10-03 08:32:00,51.0,50.7,29.87,WNW,284,0.0,0.0,99,0.00,,,0.01,Wunderground v.1.15,2013-10-03 12:32:00,
2013-10-03 08:37:00,51.6,51.3,29.87,WNW,284,0.0,0.0,99,0.00,,,0.01,Wunderground v.1.15,2013-10-03 12:37:00,
2013-10-03 08:47:00,52.6,52.3,29.87,WNW,284,0.0,0.0,99,0.00,,,0.01,Wunderground v.1.15,2013-10-03 12:47:00,
2013-10-03 08:52:00,53.3,53.0,29.87,WNW,284,0.0,0.0,99,0.00,,,0.01,Wunderground v.1.15,2013-10-03 12:52:00,
2013-10-03 09:02:00,53.9,53.6,29.87,WNW,284,1.0,2.0,99,0.00,,,0.01,Wunderground v.1.15,2013-10-03 13:02:00,
2013-10-03 09:07:00,54.3,54.0,29.87,WNW,284,1.0,2.0,99,0.00,,,0.01,Wunderground v.1.15,2013-10-03 13:07:00,
2013-10-03 09:17:00,55.4,55.1,29.87,WNW,284,1.0,2.0,99,0.00,,,0.01,Wunderground v.1.15,2013-10-03 13:17:00,
2013-10-03 09:22:00,56.0,55.7,29.87,WNW,284,1.0,1.0,99,0.00,,,0.01,Wunderground v.1.15,2013-10-03 13:22:00,
2013-10-03 09:31:00,57.4,56.8,29.87,WNW,284,0.0,0.0,98,0.00,,,0.01,Wunderground v.1.15,2013-10-03 13:31:00,
2013-10-03 09:37:00,58.3,57.5,29.87,WNW,284,0.0,0.0,97,0.00,,,0.01,Wunderground v.1.15,2013-10-03 13:37:00,
2013-10-03 09:47:00,59.5,55.3,29.87,WNW,284,1.0,1.0,86,0.00,,,0.01,Wunderground v.1.15,2013-10-03 13:47:00,
2013-10-03 09:52:00,60.0,55.5,29.87,WNW,284,1.0,1.0,85,0.00,,,0.01,Wunderground v.1.15,2013-10-03 13:52:00,
2013-10-03 10:01:00,61.3,55.4,29.87,WNW,284,0.0,0.0,81,0.00,,,0.01,Wunderground v.1.15,2013-10-03 14:01:00,
2013-10-03 10:07:00,62.3,54.6,29.87,WNW,284,1.0,1.0,76,0.00,,,0.01,Wunderground v.1.15,2013-10-03 14:07:00,
2013-10-03 10:16:00,63.6,54.4,29.87,WNW,284,1.0,1.0,72,0.00,,,0.01,Wunderground v.1.15,2013-10-03 14:16:00,
2013-10-03 10:22:00,64.0,54.8,29.87,WNW,284,1.0,1.0,72,0.00,,,0.01,Wunderground v.1.15,2013-10-03 14:22:00,
2013-10-03 10:27:00,64.4,52.0,29.87,WNW,284,1.0,2.0,64,0.00,,,0.01,Wunderground v.1.15,2013-10-03 14:27:00,
2013-10-03 10:37:00,65.6,51.8,29.87,WNW,284,1.0,1.0,61,0.00,,,0.01,Wunderground v.1.15,2013-10-03 14:37:00,
2013-10-03 10:42:00,66.1,50.4,29.87,WNW,284,1.0,1.0,57,0.00,,,0.01,Wunderground v.1.15,2013-10-03 14:42:00,
2013-10-03 10:52:00,66.8,52.5,29.86,WNW,284,1.0,1.0,60,0.00,,,0.01,Wunderground v.1.15,2013-10-03 14:52:00,
2013-10-03 10:57:00,67.5,51.7,29.86,WNW,284,0.0,1.0,57,0.00,,,0.01,Wunderground v.1.15,2013-10-03 14:57:00,
2013-10-03 11:07:00,67.8,52.5,29.86,NW,310,1.0,2.0,58,0.00,,,0.01,Wunderground v.1.15,2013-10-03 15:07:00,
2013-10-03 11:16:00,68.0,51.2,29.86,WNW,292,1.0,1.0,55,0.00,,,0.01,Wunderground v.1.15,2013-10-03 15:16:00,
2013-10-03 11:21:00,68.1,51.8,29.85,SW,227,1.0,3.0,56,0.00,,,0.01,Wunderground v.1.15,2013-10-03 15:21:00,
2013-10-03 11:27:00,67.8,52.0,29.86,SW,227,1.0,3.0,57,0.00,,,0.01,Wunderground v.1.15,2013-10-03 15:27:00,
2013-10-03 11:37:00,68.3,52.5,29.85,SW,227,0.0,1.0,57,0.00,,,0.01,Wunderground v.1.15,2013-10-03 15:37:00,
2013-10-03 11:42:00,68.8,50.5,29.85,SW,228,1.0,1.0,52,0.00,,,0.01,Wunderground v.1.15,2013-10-03 15:42:00,
2013-10-03 11:52:00,69.6,51.2,29.85,SW,228,1.0,2.0,52,0.00,,,0.01,Wunderground v.1.15,2013-10-03 15:52:00,
2013-10-03 12:01:00,69.7,50.8,29.84,SW,228,1.0,1.0,51,0.00,,,0.01,Wunderground v.1.15,2013-10-03 16:01:00,
2013-10-03 12:07:00,70.0,51.0,29.84,SW,227,1.0,1.0,51,0.00,,,0.01,Wunderground v.1.15,2013-10-03 16:07:00,
2013-10-03 12:16:00,69.9,50.9,29.84,SW,227,1.0,3.0,51,0.00,,,0.01,Wunderground v.1.15,2013-10-03 16:16:00,
2013-10-03 12:22:00,70.1,50.6,29.84,SW,227,0.0,2.0,50,0.00,,,0.01,Wunderground v.1.15,2013-10-03 16:22:00,
2013-10-03 12:27:00,70.2,50.1,29.84,SW,227,0.0,2.0,49,0.00,,,0.01,Wunderground v.1.15,2013-10-03 16:27:00,
2013-10-03 12:37:00,70.6,51.1,29.83,SW,227,1.0,2.0,50,0.00,,,0.01,Wunderground v.1.15,2013-10-03 16:37:00,
2013-10-03 12:42:00,70.7,52.7,29.83,SW,227,1.0,1.0,53,0.00,,,0.01,Wunderground v.1.15,2013-10-03 16:42:00,
2013-10-03 12:52:00,71.0,50.3,29.83,SW,227,0.0,0.0,48,0.00,,,0.01,Wunderground v.1.15,2013-10-03 16:52:00,
2013-10-03 12:57:00,71.0,53.0,29.83,SW,227,0.0,1.0,53,0.00,,,0.01,Wunderground v.1.15,2013-10-03 16:57:00,
2013-10-03 13:07:00,71.5,51.9,29.82,SW,227,0.0,1.0,50,0.00,,,0.01,Wunderground v.1.15,2013-10-03 17:07:00,
2013-10-03 13:16:00,71.7,52.1,29.82,SW,227,0.0,0.0,50,0.00,,,0.01,Wunderground v.1.15,2013-10-03 17:16:00,
2013-10-03 13:21:00,71.7,51.5,29.82,SW,227,0.0,1.0,49,0.00,,,0.01,Wunderground v.1.15,2013-10-03 17:21:00,
2013-10-03 13:27:00,71.7,53.7,29.81,SW,227,0.0,1.0,53,0.00,,,0.01,Wunderground v.1.15,2013-10-03 17:27:00,
2013-10-03 13:32:00,71.9,53.8,29.81,SW,227,0.0,2.0,53,0.00,,,0.01,Wunderground v.1.15,2013-10-03 17:32:00,
2013-10-03 13:42:00,71.7,51.5,29.81,SW,227,1.0,1.0,49,0.00,,,0.01,Wunderground v.1.15,2013-10-03 17:42:00,
2013-10-03 13:51:00,71.7,52.6,29.81,SW,227,0.0,0.0,51,0.00,,,0.01,Wunderground v.1.15,2013-10-03 17:51:00,
2013-10-03 13:57:00,71.8,55.7,29.81,SW,227,0.0,0.0,57,0.00,,,0.01,Wunderground v.1.15,2013-10-03 17:57:00,
2013-10-03 14:02:00,71.8,52.2,29.80,SW,227,0.0,0.0,50,0.00,,,0.01,Wunderground v.1.15,2013-10-03 18:02:00,
2013-10-03 14:07:00,71.6,52.5,29.80,SW,227,0.0,0.0,51,0.00,,,0.01,Wunderground v.1.15,2013-10-03 18:07:00,
2013-10-03 14:17:00,71.5,53.5,29.80,SW,227,1.0,1.0,53,0.00,,,0.01,Wunderground v.1.15,2013-10-03 18:17:00,
2013-10-03 14:27:00,71.3,53.8,29.79,ENE,71,1.0,1.0,54,0.00,,,0.01,Wunderground v.1.15,2013-10-03 18:27:00,
2013-10-03 14:32:00,70.9,56.8,29.79,NNE,30,2.0,2.0,61,0.00,,,0.01,Wunderground v.1.15,2013-10-03 18:32:00,
2013-10-03 14:42:00,69.7,57.0,29.79,ENE,57,2.0,3.0,64,0.00,,,0.01,Wunderground v.1.15,2013-10-03 18:42:00,
2013-10-03 15:27:00,68.0,57.4,29.78,NNE,25,2.0,2.0,69,0.00,,,0.01,Wunderground v.1.15,2013-10-03 19:27:00,
2013-10-03 15:32:00,67.9,58.5,29.78,ENE,69,2.0,2.0,72,0.00,,,0.01,Wunderground v.1.15,2013-10-03 19:32:00,
2013-10-03 15:41:00,68.0,57.8,29.77,ENE,76,1.0,1.0,70,0.00,,,0.01,Wunderground v.1.15,2013-10-03 19:41:00,
2013-10-03 15:47:00,68.0,58.2,29.77,ENE,76,1.0,2.0,71,0.00,,,0.01,Wunderground v.1.15,2013-10-03 19:47:00,
2013-10-03 15:52:00,68.2,58.4,29.77,ENE,75,1.0,1.0,71,0.00,,,0.01,Wunderground v.1.15,2013-10-03 19:52:00,
2013-10-03 16:02:00,68.3,58.5,29.76,ENE,75,1.0,1.0,71,0.00,,,0.01,Wunderground v.1.15,2013-10-03 20:02:00,
2013-10-03 16:07:00,68.5,59.5,29.76,ENE,75,0.0,1.0,73,0.00,,,0.01,Wunderground v.1.15,2013-10-03 20:07:00,
2013-10-03 16:17:00,68.4,59.0,29.76,ENE,75,1.0,2.0,72,0.00,,,0.01,Wunderground v.1.15,2013-10-03 20:17:00,
2013-10-03 16:22:00,68.3,58.1,29.76,ENE,75,1.0,1.0,70,0.00,,,0.01,Wunderground v.1.15,2013-10-03 20:22:00,
2013-10-03 16:32:00,68.3,58.9,29.76,ENE,75,1.0,2.0,72,0.00,,,0.01,Wunderground v.1.15,2013-10-03 20:32:00,
2013-10-03 16:41:00,68.8,59.4,29.76,ENE,67,1.0,1.0,72,0.00,,,0.01,Wunderground v.1.15,2013-10-03 20:41:00,
2013-10-03 16:47:00,68.8,58.6,29.77,ENE,68,1.0,3.0,70,0.00,,,0.01,Wunderground v.1.15,2013-10-03 20:47:00,
2013-10-03 16:52:00,68.7,58.9,29.76,ENE,76,1.0,1.0,71,0.00,,,0.01,Wunderground v.1.15,2013-10-03 20:52:00,
2013-10-03 17:02:00,68.7,59.3,29.76,ENE,65,1.0,1.0,72,0.00,,,0.01,Wunderground v.1.15,2013-10-03 21:02:00,
2013-10-03 17:12:00,68.7,58.9,29.76,ENE,71,1.0,1.0,71,0.00,,,0.01,Wunderground v.1.15,2013-10-03 21:12:00,
2013-10-03 17:21:00,68.5,59.1,29.76,East,80,0.0,0.0,72,0.00,,,0.01,Wunderground v.1.15,2013-10-03 21:21:00,
2013-10-03 17:27:00,68.5,59.1,29.76,East,80,1.0,1.0,72,0.00,,,0.01,Wunderground v.1.15,2013-10-03 21:27:00,
2013-10-03 17:37:00,68.4,59.0,29.76,East,80,0.0,1.0,72,0.00,,,0.01,Wunderground v.1.15,2013-10-03 21:37:00,
2013-10-03 17:42:00,68.3,59.3,29.76,East,80,0.0,0.0,73,0.00,,,0.01,Wunderground v.1.15,2013-10-03 21:42:00,
2013-10-03 17:51:00,67.8,59.6,29.76,East,80,0.0,0.0,75,0.00,,,0.01,Wunderground v.1.15,2013-10-03 21:51:00,
2013-10-03 17:57:00,67.6,60.1,29.76,East,80,0.0,0.0,77,0.00,,,0.01,Wunderground v.1.15,2013-10-03 21:57:00,
2013-10-03 18:07:00,67.1,60.7,29.76,East,80,0.0,0.0,80,0.00,,,0.01,Wunderground v.1.15,2013-10-03 22:07:00,
2013-10-03 18:16:00,66.4,60.0,29.76,East,80,0.0,0.0,80,0.00,,,0.01,Wunderground v.1.15,2013-10-03 22:16:00,
2013-10-03 18:21:00,66.0,60.3,29.76,East,80,0.0,0.0,82,0.00,,,0.01,Wunderground v.1.15,2013-10-03 22:21:00,
2013-10-03 18:27:00,65.5,60.2,29.76,East,80,0.0,0.0,83,0.00,,,0.01,Wunderground v.1.15,2013-10-03 22:27:00,
2013-10-03 18:32:00,65.0,59.7,29.76,East,80,0.0,0.0,83,0.00,,,0.01,Wunderground v.1.15,2013-10-03 22:32:00,
2013-10-03 18:42:00,64.1,59.5,29.76,East,80,0.0,0.0,85,0.00,,,0.01,Wunderground v.1.15,2013-10-03 22:42:00,
2013-10-03 18:47:00,63.8,59.2,29.76,East,80,0.0,0.0,85,0.00,,,0.01,Wunderground v.1.15,2013-10-03 22:47:00,
2013-10-03 18:57:00,63.1,58.8,29.76,East,80,0.0,0.0,86,0.00,,,0.01,Wunderground v.1.15,2013-10-03 22:57:00,
2013-10-03 19:02:00,62.8,58.5,29.76,East,80,0.0,0.0,86,0.00,,,0.01,Wunderground v.1.15,2013-10-03 23:02:00,
2013-10-03 19:07:00,62.6,58.4,29.76,East,80,0.0,0.0,86,0.00,,,0.01,Wunderground v.1.15,2013-10-03 23:07:00,
2013-10-03 19:17:00,62.4,58.5,29.76,East,80,0.0,1.0,87,0.00,,,0.01,Wunderground v.1.15,2013-10-03 23:17:00,
2013-10-03 19:22:00,62.4,58.5,29.76,East,80,0.0,0.0,87,0.00,,,0.01,Wunderground v.1.15,2013-10-03 23:22:00,
2013-10-03 19:32:00,62.5,58.6,29.76,East,80,0.0,2.0,87,0.00,,,0.01,Wunderground v.1.15,2013-10-03 23:32:00,
2013-10-03 19:41:00,62.4,58.5,29.76,East,80,0.0,0.0,87,0.00,,,0.01,Wunderground v.1.15,2013-10-03 23:41:00,
2013-10-03 19:47:00,62.4,58.5,29.76,East,80,1.0,2.0,87,0.00,,,0.01,Wunderground v.1.15,2013-10-03 23:47:00,
2013-10-03 19:52:00,62.4,58.5,29.76,ENE,68,1.0,1.0,87,0.00,,,0.01,Wunderground v.1.15,2013-10-03 23:52:00,
2013-10-03 20:02:00,62.5,58.3,29.76,NE,55,1.0,1.0,86,0.00,,,0.01,Wunderground v.1.15,2013-10-04 00:02:00,
2013-10-03 20:07:00,62.5,58.6,29.76,NE,55,0.0,1.0,87,0.00,,,0.01,Wunderground v.1.15,2013-10-04 00:07:00,
2013-10-03 20:17:00,62.3,58.4,29.76,NE,55,0.0,0.0,87,0.00,,,0.01,Wunderground v.1.15,2013-10-04 00:17:00,
2013-10-03 20:22:00,62.3,58.4,29.76,NE,55,0.0,0.0,87,0.00,,,0.01,Wunderground v.1.15,2013-10-04 00:22:00,
2013-10-03 20:32:00,62.1,58.5,29.76,NE,55,0.0,1.0,88,0.00,,,0.01,Wunderground v.1.15,2013-10-04 00:32:00,
2013-10-03 20:37:00,62.0,58.4,29.76,SE,133,0.0,1.0,88,0.00,,,0.01,Wunderground v.1.15,2013-10-04 00:37:00,
2013-10-03 20:47:00,61.9,58.3,29.77,SE,133,1.0,2.0,88,0.00,,,0.01,Wunderground v.1.15,2013-10-04 00:47:00,
2013-10-03 20:52:00,61.9,58.3,29.76,ESE,113,1.0,1.0,88,0.00,,,0.01,Wunderground v.1.15,2013-10-04 00:52:00,
2013-10-03 21:02:00,61.7,58.1,29.77,ESE,113,0.0,0.0,88,0.00,,,0.01,Wunderground v.1.15,2013-10-04 01:02:00,
2013-10-03 21:07:00,61.6,58.0,29.77,ESE,113,0.0,0.0,88,0.00,,,0.01,Wunderground v.1.15,2013-10-04 01:07:00,
2013-10-03 21:17:00,61.6,58.3,29.77,ESE,113,1.0,1.0,89,0.00,,,0.01,Wunderground v.1.15,2013-10-04 01:17:00,
2013-10-03 21:22:00,61.5,58.2,29.77,ESE,113,1.0,1.0,89,0.00,,,0.01,Wunderground v.1.15,2013-10-04 01:22:00,
2013-10-03 21:32:00,61.1,58.1,29.77,SE,127,1.0,2.0,90,0.00,,,0.01,Wunderground v.1.15,2013-10-04 01:32:00,
2013-10-03 21:41:00,60.9,57.9,29.76,South,175,2.0,3.0,90,0.00,,,0.01,Wunderground v.1.15,2013-10-04 01:41:00,
2013-10-03 21:47:00,60.7,57.7,29.76,South,171,2.0,3.0,90,0.00,,,0.01,Wunderground v.1.15,2013-10-04 01:47:00,
2013-10-03 21:57:00,60.2,57.3,29.76,SSE,161,3.0,4.0,90,0.00,,,0.01,Wunderground v.1.15,2013-10-04 01:57:00,
2013-10-03 22:07:00,59.9,57.3,29.75,ESE,122,1.0,2.0,91,0.00,,,0.02,Wunderground v.1.15,2013-10-04 02:07:00,
2013-10-03 22:16:00,59.6,56.7,29.76,SE,126,2.0,2.0,90,0.00,,,0.02,Wunderground v.1.15,2013-10-04 02:16:00,
2013-10-03 22:21:00,59.5,56.6,29.75,SSE,155,1.0,1.0,90,0.00,,,0.02,Wunderground v.1.15,2013-10-04 02:21:00,
2013-10-03 22:27:00,59.4,56.5,29.75,SSE,161,1.0,3.0,90,0.00,,,0.02,Wunderground v.1.15,2013-10-04 02:27:00,
2013-10-03 22:32:00,59.3,56.4,29.75,SSE,162,2.0,2.0,90,0.00,,,0.02,Wunderground v.1.15,2013-10-04 02:32:00,
2013-10-03 22:42:00,59.1,56.2,29.75,SE,135,1.0,1.0,90,0.00,,,0.02,Wunderground v.1.15,2013-10-04 02:42:00,
2013-10-03 22:51:00,59.0,56.4,29.75,SE,135,0.0,0.0,91,0.00,,,0.02,Wunderground v.1.15,2013-10-04 02:51:00,
2013-10-03 22:57:00,58.9,56.3,29.76,SE,135,0.0,0.0,91,0.00,,,0.02,Wunderground v.1.15,2013-10-04 02:57:00,
2013-10-03 23:07:00,58.9,56.6,29.76,SE,135,0.0,0.0,92,0.00,,,0.02,Wunderground v.1.15,2013-10-04 03:07:00,
2013-10-03 23:17:00,58.9,56.9,29.76,SE,135,0.0,0.0,93,0.00,,,0.02,Wunderground v.1.15,2013-10-04 03:17:00,
2013-10-03 23:27:00,58.9,56.9,29.76,SE,135,0.0,0.0,93,0.00,,,0.02,Wunderground v.1.15,2013-10-04 03:27:00,
2013-10-03 23:32:00,58.9,57.2,29.76,SE,135,0.0,0.0,94,0.00,,,0.02,Wunderground v.1.15,2013-10-04 03:32:00,
2013-10-03 23:42:00,58.9,56.9,29.76,SE,135,0.0,0.0,93,0.00,,,0.02,Wunderground v.1.15,2013-10-04 03:42:00,
2013-10-03 23:47:00,59.0,57.0,29.76,SE,135,0.0,0.0,93,0.00,,,0.02,Wunderground v.1.15,2013-10-04 03:47:00,
2013-10-03 23:57:00,59.1,57.4,29.76,SE,135,0.0,0.0,94,0.00,,,0.02,Wunderground v.1.15,2013-10-04 03:57:00,